createdAt,value
2018-10-17T00:06:36.496Z,11.20
2018-10-17T00:09:13.290Z,11.20
2018-10-17T00:11:41.338Z,11.20
2018-10-17T00:17:09.917Z,11.20
2018-10-17T00:19:42.235Z,11.10
2018-10-17T00:22:11.419Z,11.10
2018-10-17T00:24:41.239Z,11.10
2018-10-17T00:27:09.190Z,11.10
2018-10-17T00:29:36.947Z,11.00
2018-10-17T00:32:06.326Z,11.00
2018-10-17T00:34:40.557Z,10.90
2018-10-17T00:37:08.279Z,10.90
2018-10-17T00:39:36.069Z,10.90
2018-10-17T00:42:03.912Z,10.90
2018-10-17T00:44:33.323Z,10.80
2018-10-17T00:49:55.968Z,10.80
2018-10-17T00:52:23.964Z,10.80
2018-10-17T00:54:51.868Z,10.80
2018-10-17T00:57:19.856Z,10.70
2018-10-17T00:59:52.514Z,10.80
2018-10-17T01:02:20.297Z,10.70
2018-10-17T01:04:48.007Z,10.60
2018-10-17T01:07:15.734Z,10.60
2018-10-17T01:09:43.486Z,10.60
2018-10-17T01:12:14.356Z,10.60
2018-10-17T01:14:42.094Z,10.60
2018-10-17T01:17:10.042Z,10.50
2018-10-17T01:19:37.895Z,10.30
2018-10-17T01:22:08.458Z,10.30
2018-10-17T01:24:42.678Z,10.30
2018-10-17T01:27:18.621Z,10.30
2018-10-17T01:29:46.479Z,10.30
2018-10-17T01:32:25.429Z,10.10
2018-10-17T01:34:53.257Z,10.20
2018-10-17T01:37:21.042Z,10.20
2018-10-17T01:39:55.776Z,10.00
2018-10-17T01:42:23.767Z,10.10
2018-10-17T01:44:55.404Z,10.10
2018-10-17T01:47:32.389Z,10.10
2018-10-17T01:50:00.563Z,10.00
2018-10-17T01:52:36.785Z,10.00
2018-10-17T01:55:05.228Z,10.00
2018-10-17T01:57:33.249Z,10.00
2018-10-17T02:00:08.513Z,9.90
2018-10-17T02:02:36.346Z,9.90
2018-10-17T02:05:09.667Z,9.90
2018-10-17T02:07:49.607Z,9.80
2018-10-17T02:10:17.716Z,9.80
2018-10-17T02:12:53.352Z,9.90
2018-10-17T02:15:28.403Z,9.90
2018-10-17T02:17:56.294Z,9.80
2018-10-17T02:20:30.665Z,9.80
2018-10-17T02:22:58.671Z,9.70
2018-10-17T02:25:26.581Z,9.70
2018-10-17T02:27:58.313Z,9.70
2018-10-17T02:30:32.905Z,9.70
2018-10-17T02:33:08.931Z,9.70
2018-10-17T02:49:12.253Z,9.70
2018-10-17T02:51:40.045Z,9.50
2018-10-17T02:54:10.143Z,9.50
2018-10-17T03:22:20.812Z,9.50
2018-10-17T03:25:11.916Z,9.30
2018-10-17T03:27:43.307Z,9.20
2018-10-17T03:41:55.650Z,9.30
2018-10-17T03:47:39.919Z,9.30
2018-10-17T05:24:53.662Z,9.10
2018-10-17T05:27:21.438Z,8.60
2018-10-17T05:29:51.312Z,8.60
2018-10-17T05:32:19.040Z,8.60
2018-10-17T05:34:46.889Z,8.60
2018-10-17T05:37:14.848Z,8.60
2018-10-17T05:39:42.560Z,8.70
2018-10-17T05:42:11.327Z,8.70
2018-10-17T05:44:39.038Z,8.70
2018-10-17T05:47:06.704Z,8.70
2018-10-17T05:49:34.589Z,8.70
2018-10-17T05:52:04.349Z,8.80
2018-10-17T05:54:33.982Z,8.70
2018-10-17T05:57:01.667Z,8.70
2018-10-17T05:59:29.565Z,8.60
2018-10-17T06:01:58.469Z,8.50
2018-10-17T06:04:27.259Z,8.50
2018-10-17T06:06:55.072Z,8.40
2018-10-17T06:09:22.831Z,8.30
2018-10-17T06:11:51.403Z,8.40
2018-10-17T06:14:20.557Z,8.40
2018-10-17T06:16:51.688Z,8.50
2018-10-17T06:19:21.061Z,8.50
2018-10-17T06:21:49.149Z,8.50
2018-10-17T06:24:20.270Z,8.60
2018-10-17T06:26:48.168Z,8.60
2018-10-17T06:29:16.051Z,8.60
2018-10-17T06:31:43.723Z,8.60
2018-10-17T06:34:11.678Z,8.60
2018-10-17T06:36:39.871Z,8.60
2018-10-17T06:39:11.262Z,8.60
2018-10-17T06:41:39.428Z,8.70
2018-10-17T06:44:07.791Z,8.70
2018-10-17T06:46:36.309Z,8.70
2018-10-17T06:49:09.669Z,8.90
2018-10-17T06:51:39.427Z,9.00
2018-10-17T07:03:00.643Z,9.00
2018-10-17T07:19:09.673Z,9.40
2018-10-17T07:22:03.378Z,9.50
2018-10-17T12:41:54.894Z,24.10
2018-10-17T12:45:04.535Z,23.50
2018-10-17T12:47:35.658Z,23.80
2018-10-17T12:50:03.738Z,23.60
2018-10-17T12:55:40.322Z,23.80
2018-10-17T12:58:09.475Z,24.20
2018-10-17T13:01:09.387Z,24.00
2018-10-17T13:03:38.136Z,24.00
2018-10-17T13:06:06.419Z,24.20
2018-10-17T13:08:39.150Z,24.30
2018-10-17T13:11:08.750Z,23.90
2018-10-17T13:17:25.865Z,23.80
2018-10-17T13:19:55.737Z,23.80
2018-10-17T13:22:26.004Z,23.70
2018-10-17T13:24:53.692Z,23.70
2018-10-17T13:27:32.657Z,23.70
2018-10-17T13:30:02.060Z,23.60
2018-10-17T13:32:37.544Z,23.80
2018-10-17T13:35:15.436Z,23.80
2018-10-17T13:37:47.420Z,23.90
2018-10-17T13:40:20.196Z,24.00
2018-10-17T13:42:49.097Z,24.10
2018-10-17T13:45:27.616Z,23.90
2018-10-17T13:47:58.946Z,23.50
2018-10-17T13:50:50.341Z,23.30
2018-10-17T13:53:20.387Z,23.10
2018-10-17T13:56:00.284Z,23.10
2018-10-17T13:58:30.714Z,23.20
2018-10-17T14:01:04.473Z,23.10
2018-10-17T14:03:32.210Z,23.10
2018-10-17T14:06:00.179Z,22.90
2018-10-17T14:08:54.118Z,22.90
2018-10-17T14:11:56.920Z,22.90
2018-10-17T14:49:01.132Z,22.40
2018-10-17T14:51:28.764Z,22.30
2018-10-17T14:54:01.718Z,22.20
2018-10-17T14:56:30.153Z,22.30
2018-10-17T14:59:00.181Z,22.40
2018-10-17T15:01:29.576Z,22.40
2018-10-17T15:04:00.339Z,22.30
2018-10-17T15:06:29.669Z,22.40
2018-10-17T15:08:58.372Z,22.30
2018-10-17T15:11:26.985Z,22.10
2018-10-17T15:13:55.324Z,22.10
2018-10-17T15:16:23.633Z,21.90
2018-10-17T15:18:51.310Z,21.70
2018-10-17T15:21:38.787Z,21.70
2018-10-17T15:24:08.122Z,21.60
2018-10-17T15:26:36.146Z,21.60
2018-10-17T15:29:04.046Z,21.50
2018-10-17T15:34:05.771Z,21.40
2018-10-17T15:36:34.063Z,21.30
2018-10-17T15:39:01.863Z,21.20
2018-10-17T15:41:29.535Z,21.20
2018-10-17T15:43:57.538Z,21.10
2018-10-17T15:46:26.934Z,21.00
2018-10-17T15:48:54.649Z,20.90
2018-10-17T15:51:22.452Z,20.80
2018-10-17T15:53:50.094Z,20.70
2018-10-17T15:56:29.314Z,20.60
2018-10-17T15:58:56.954Z,20.50
2018-10-17T16:01:24.717Z,20.40
2018-10-17T16:03:52.642Z,20.20
2018-10-17T16:06:20.291Z,20.00
2018-10-17T16:08:48.110Z,19.90
2018-10-17T16:11:15.753Z,19.80
2018-10-17T16:13:43.359Z,19.60
2018-10-17T16:16:11.095Z,19.50
2018-10-17T16:18:38.688Z,19.30
2018-10-17T16:21:06.359Z,19.10
2018-10-17T16:23:33.932Z,19.00
2018-10-17T16:26:01.715Z,18.90
2018-10-17T16:28:29.497Z,18.80
2018-10-17T16:30:57.275Z,18.70
2018-10-17T16:33:31.653Z,18.50
2018-10-17T16:35:59.332Z,18.40
2018-10-17T16:38:26.973Z,18.20
2018-10-17T16:40:54.667Z,18.10
2018-10-17T16:43:22.317Z,18.00
2018-10-17T16:45:49.909Z,17.90
2018-10-17T16:48:18.844Z,17.80
2018-10-17T16:50:51.667Z,17.60
2018-10-17T16:53:19.949Z,17.50
2018-10-17T16:55:50.477Z,17.40
2018-10-17T16:58:23.348Z,17.40
2018-10-17T17:00:54.420Z,17.30
2018-10-17T17:03:23.565Z,17.30
2018-10-17T17:05:53.348Z,17.30
2018-10-17T17:08:25.543Z,17.20
2018-10-17T17:10:57.330Z,17.10
2018-10-17T17:13:27.371Z,17.00
2018-10-17T17:15:55.952Z,16.80
2018-10-17T17:18:30.409Z,16.70
2018-10-17T17:20:59.551Z,16.60
2018-10-17T17:23:27.548Z,16.50
2018-10-17T17:25:56.535Z,16.50
2018-10-17T17:28:24.252Z,16.50
2018-10-17T17:33:31.426Z,16.30
2018-10-17T17:36:02.468Z,16.20
2018-10-17T17:38:30.058Z,16.00
2018-10-17T17:40:57.706Z,15.80
2018-10-17T17:43:34.682Z,15.80
2018-10-17T17:46:04.561Z,15.80
2018-10-17T17:48:33.841Z,15.80
2018-10-17T17:51:52.879Z,15.80
2018-10-17T17:54:20.734Z,15.90
2018-10-17T17:56:48.511Z,16.00
2018-10-17T17:59:19.582Z,16.10
2018-10-17T18:01:47.440Z,16.20
2018-10-17T18:04:15.320Z,16.30
2018-10-17T18:06:43.960Z,16.30
2018-10-17T18:09:12.625Z,16.40
2018-10-17T18:11:41.696Z,16.20
2018-10-17T18:14:11.020Z,16.10
2018-10-17T18:16:39.105Z,16.00
2018-10-17T18:19:07.042Z,15.90
2018-10-17T18:21:37.073Z,15.90
2018-10-17T18:24:07.129Z,15.80
2018-10-17T18:26:35.239Z,15.80
2018-10-17T18:29:03.344Z,15.70
2018-10-17T18:31:31.406Z,15.60
2018-10-17T18:33:59.462Z,15.60
2018-10-17T18:36:28.035Z,15.50
2018-10-17T18:39:12.298Z,15.50
2018-10-17T18:41:41.218Z,15.50
2018-10-17T18:44:09.874Z,15.50
2018-10-17T18:46:38.801Z,15.50
2018-10-17T18:49:07.468Z,15.50
2018-10-17T18:51:39.121Z,15.60
2018-10-17T19:20:59.903Z,14.90
2018-10-17T19:23:28.814Z,14.70
2018-10-17T19:25:58.547Z,14.60
2018-10-17T19:28:29.025Z,14.50
2018-10-17T19:31:02.220Z,14.50
2018-10-17T19:33:37.322Z,14.40
2018-10-17T19:36:08.796Z,14.40
2018-10-17T19:41:20.730Z,14.30
2018-10-17T19:43:54.830Z,14.30
2018-10-17T19:46:26.616Z,14.40
2018-10-17T19:49:02.507Z,14.30
2018-10-17T19:51:38.317Z,14.10
2018-10-17T19:54:13.875Z,13.90
2018-10-17T19:56:54.521Z,13.90
2018-10-17T19:59:26.503Z,13.90
2018-10-17T20:01:57.928Z,13.90
2018-10-17T20:04:27.361Z,13.90
2018-10-17T20:06:57.233Z,13.90
2018-10-17T20:09:25.026Z,13.90
2018-10-17T20:11:52.631Z,13.80
2018-10-17T20:14:20.419Z,13.80
2018-10-17T20:16:48.067Z,13.80
2018-10-17T20:19:15.697Z,13.70
2018-10-17T20:21:43.384Z,13.70
2018-10-17T20:24:11.057Z,13.70
2018-10-17T20:26:38.703Z,13.70
2018-10-17T20:29:06.397Z,13.60
2018-10-17T20:31:34.071Z,13.50
2018-10-17T20:34:01.748Z,13.50
2018-10-17T20:36:29.370Z,13.50
2018-10-17T20:38:57.077Z,13.50
2018-10-17T20:41:24.738Z,13.50
2018-10-17T20:43:52.439Z,13.50
2018-10-17T20:46:20.029Z,13.40
2018-10-17T20:48:47.707Z,13.30
2018-10-17T20:51:15.389Z,13.10
2018-10-17T20:53:43.057Z,13.10
2018-10-17T20:56:10.764Z,13.10
2018-10-17T20:58:38.354Z,13.20
2018-10-17T21:01:10.847Z,13.20
2018-10-17T21:03:38.459Z,13.10
2018-10-17T21:06:06.140Z,13.10
2018-10-17T21:08:33.733Z,13.10
2018-10-17T21:11:01.414Z,13.00
2018-10-17T21:13:29.022Z,13.00
2018-10-17T21:15:56.624Z,13.00
2018-10-17T21:18:24.371Z,13.00
2018-10-17T21:20:51.850Z,12.90
2018-10-17T21:23:19.506Z,12.90
2018-10-17T21:25:47.158Z,12.90
2018-10-17T21:28:14.759Z,12.90
2018-10-17T21:30:42.415Z,12.90
2018-10-17T21:33:10.079Z,12.90
2018-10-17T21:35:37.714Z,12.80
2018-10-17T21:38:05.416Z,12.70
2018-10-17T21:40:33.054Z,12.70
2018-10-17T21:43:00.698Z,12.70
2018-10-17T21:45:28.326Z,12.60
2018-10-17T21:47:55.910Z,12.60
2018-10-17T21:50:23.532Z,12.60
2018-10-17T21:52:51.157Z,12.60
2018-10-17T21:55:18.843Z,12.60
2018-10-17T21:57:46.488Z,12.40
2018-10-17T22:00:14.127Z,12.50
2018-10-17T22:02:41.729Z,12.50
2018-10-17T22:05:10.459Z,12.50
2018-10-17T22:07:38.189Z,12.40
2018-10-17T22:10:05.887Z,12.30
2018-10-17T22:12:33.596Z,12.30
2018-10-17T22:15:03.759Z,12.20
2018-10-17T22:17:31.379Z,12.20
2018-10-17T22:19:59.169Z,12.20
2018-10-17T22:22:27.161Z,12.20
2018-10-17T22:24:55.664Z,12.20
2018-10-17T22:27:23.363Z,12.00
2018-10-17T22:29:51.091Z,12.00
2018-10-17T22:32:18.677Z,12.00
2018-10-17T22:34:46.337Z,12.00
2018-10-17T22:37:13.959Z,12.00
2018-10-17T22:39:41.586Z,12.00
2018-10-17T22:42:09.297Z,12.00
2018-10-17T22:44:36.890Z,12.00
2018-10-17T22:47:05.066Z,11.90
2018-10-17T22:49:32.666Z,11.90
2018-10-17T22:52:00.493Z,12.00
2018-10-17T22:54:28.090Z,11.90
2018-10-17T22:56:55.684Z,11.80
2018-10-17T22:59:23.374Z,11.90
2018-10-17T23:01:51.028Z,11.80
2018-10-17T23:04:18.739Z,11.80
2018-10-17T23:06:46.363Z,11.70
2018-10-17T23:09:14.878Z,11.60
2018-10-17T23:11:43.234Z,11.60
2018-10-17T23:14:11.334Z,11.70
2018-10-17T23:16:38.889Z,11.70
2018-10-17T23:19:06.909Z,11.70
2018-10-17T23:21:34.526Z,11.60
2018-10-17T23:24:11.749Z,11.50
2018-10-17T23:26:39.401Z,11.50
2018-10-17T23:29:07.030Z,11.50
2018-10-17T23:31:34.622Z,11.50
2018-10-17T23:34:02.267Z,11.50
2018-10-17T23:36:29.973Z,11.40
2018-10-17T23:38:57.699Z,11.40
2018-10-17T23:41:25.377Z,11.40
2018-10-17T23:43:53.052Z,11.30
2018-10-17T23:46:20.718Z,11.40
2018-10-17T23:48:48.369Z,11.40
2018-10-17T23:51:15.978Z,11.40
2018-10-17T23:53:43.692Z,11.20
2018-10-17T23:56:11.445Z,11.20
2018-10-17T23:58:39.085Z,11.20
